sensor_id;sensor_type;location;lat;lon;timestamp;P1;durP1;ratioP1;P2;durP2;ratioP2
1350;SDS011;669;50.206;9.998;2022-09-28T00:01:04;6.30;;;4.20;;
1350;SDS011;669;50.206;9.998;2022-09-28T00:03:33;5.00;;;3.80;;
1350;SDS011;669;50.206;9.998;2022-09-28T00:06:02;4.87;;;3.90;;
1350;SDS011;669;50.206;9.998;2022-09-28T00:08:31;4.93;;;3.43;;
1350;SDS011;669;50.206;9.998;2022-09-28T00:11:01;3.63;;;3.30;;
1350;SDS011;669;50.206;9.998;2022-09-28T00:13:32;4.40;;;3.23;;
1350;SDS011;669;50.206;9.998;2022-09-28T00:16:01;3.13;;;2.90;;
1350;SDS011;669;50.206;9.998;2022-09-28T00:18:30;3.43;;;3.13;;
1350;SDS011;669;50.206;9.998;2022-09-28T00:20:59;2.70;;;2.50;;
1350;SDS011;669;50.206;9.998;2022-09-28T00:23:27;3.37;;;3.17;;
1350;SDS011;669;50.206;9.998;2022-09-28T00:25:55;2.60;;;2.37;;
1350;SDS011;669;50.206;9.998;2022-09-28T00:28:30;3.63;;;3.33;;
1350;SDS011;669;50.206;9.998;2022-09-28T00:30:58;4.00;;;3.00;;
1350;SDS011;669;50.206;9.998;2022-09-28T00:33:26;3.23;;;2.90;;
1350;SDS011;669;50.206;9.998;2022-09-28T00:35:55;3.20;;;2.90;;
1350;SDS011;669;50.206;9.998;2022-09-28T00:38:26;4.63;;;3.23;;
1350;SDS011;669;50.206;9.998;2022-09-28T00:40:54;4.03;;;3.10;;
1350;SDS011;669;50.206;9.998;2022-09-28T00:43:24;3.03;;;2.83;;
1350;SDS011;669;50.206;9.998;2022-09-28T00:45:54;2.53;;;2.33;;
1350;SDS011;669;50.206;9.998;2022-09-28T00:48:26;3.30;;;2.90;;
1350;SDS011;669;50.206;9.998;2022-09-28T00:50:59;2.20;;;2.10;;
1350;SDS011;669;50.206;9.998;2022-09-28T00:53:31;4.53;;;3.23;;
1350;SDS011;669;50.206;9.998;2022-09-28T00:56:03;2.40;;;2.20;;
1350;SDS011;669;50.206;9.998;2022-09-28T00:58:37;2.40;;;2.00;;
1350;SDS011;669;50.206;9.998;2022-09-28T01:01:07;2.03;;;1.93;;
1350;SDS011;669;50.206;9.998;2022-09-28T01:03:35;2.33;;;2.13;;
1350;SDS011;669;50.206;9.998;2022-09-28T01:06:06;2.33;;;2.23;;
1350;SDS011;669;50.206;9.998;2022-09-28T01:08:36;2.83;;;2.47;;
1350;SDS011;669;50.206;9.998;2022-09-28T01:11:05;2.10;;;1.90;;
1350;SDS011;669;50.206;9.998;2022-09-28T01:13:33;3.13;;;2.83;;
1350;SDS011;669;50.206;9.998;2022-09-28T01:16:21;2.20;;;2.10;;
1350;SDS011;669;50.206;9.998;2022-09-28T01:18:58;7.30;;;3.37;;
1350;SDS011;669;50.206;9.998;2022-09-28T01:21:40;9.43;;;3.00;;
1350;SDS011;669;50.206;9.998;2022-09-28T01:24:26;3.50;;;3.20;;
1350;SDS011;669;50.206;9.998;2022-09-28T01:27:09;3.00;;;2.67;;
1350;SDS011;669;50.206;9.998;2022-09-28T01:29:42;3.53;;;3.20;;
1350;SDS011;669;50.206;9.998;2022-09-28T01:32:15;3.77;;;3.37;;
1350;SDS011;669;50.206;9.998;2022-09-28T01:34:53;6.20;;;3.97;;
1350;SDS011;669;50.206;9.998;2022-09-28T01:37:26;3.30;;;3.00;;
1350;SDS011;669;50.206;9.998;2022-09-28T01:40:00;7.53;;;4.20;;
1350;SDS011;669;50.206;9.998;2022-09-28T01:42:33;4.30;;;3.10;;
1350;SDS011;669;50.206;9.998;2022-09-28T01:45:06;3.90;;;3.00;;
1350;SDS011;669;50.206;9.998;2022-09-28T01:47:38;4.30;;;3.30;;
1350;SDS011;669;50.206;9.998;2022-09-28T01:50:09;3.77;;;3.30;;
1350;SDS011;669;50.206;9.998;2022-09-28T01:52:40;4.10;;;3.03;;
1350;SDS011;669;50.206;9.998;2022-09-28T01:55:14;5.33;;;3.40;;
1350;SDS011;669;50.206;9.998;2022-09-28T01:57:49;5.43;;;4.33;;
1350;SDS011;669;50.206;9.998;2022-09-28T02:00:21;3.90;;;3.50;;
1350;SDS011;669;50.206;9.998;2022-09-28T02:02:52;3.00;;;2.80;;
1350;SDS011;669;50.206;9.998;2022-09-28T02:05:25;4.00;;;3.00;;
1350;SDS011;669;50.206;9.998;2022-09-28T02:08:00;3.50;;;3.10;;
1350;SDS011;669;50.206;9.998;2022-09-28T02:10:32;4.40;;;3.30;;
1350;SDS011;669;50.206;9.998;2022-09-28T02:13:07;4.53;;;4.13;;
1350;SDS011;669;50.206;9.998;2022-09-28T02:15:41;4.00;;;3.40;;
1350;SDS011;669;50.206;9.998;2022-09-28T02:18:12;3.40;;;3.10;;
1350;SDS011;669;50.206;9.998;2022-09-28T02:20:40;4.07;;;3.77;;
1350;SDS011;669;50.206;9.998;2022-09-28T02:23:12;5.60;;;3.77;;
1350;SDS011;669;50.206;9.998;2022-09-28T02:25:43;8.10;;;3.40;;
1350;SDS011;669;50.206;9.998;2022-09-28T02:28:16;4.50;;;3.40;;
1350;SDS011;669;50.206;9.998;2022-09-28T02:30:44;3.70;;;3.40;;
1350;SDS011;669;50.206;9.998;2022-09-28T02:33:13;4.90;;;3.60;;
1350;SDS011;669;50.206;9.998;2022-09-28T02:35:46;4.87;;;3.60;;
1350;SDS011;669;50.206;9.998;2022-09-28T02:38:14;3.30;;;3.00;;
1350;SDS011;669;50.206;9.998;2022-09-28T02:40:43;3.90;;;2.80;;
1350;SDS011;669;50.206;9.998;2022-09-28T02:43:18;4.13;;;3.60;;
1350;SDS011;669;50.206;9.998;2022-09-28T02:45:52;6.53;;;2.77;;
1350;SDS011;669;50.206;9.998;2022-09-28T02:48:33;4.90;;;2.63;;
1350;SDS011;669;50.206;9.998;2022-09-28T02:51:26;3.90;;;2.97;;
1350;SDS011;669;50.206;9.998;2022-09-28T02:54:05;3.10;;;2.90;;
1350;SDS011;669;50.206;9.998;2022-09-28T02:56:52;2.57;;;2.37;;
1350;SDS011;669;50.206;9.998;2022-09-28T02:59:51;2.40;;;2.30;;
1350;SDS011;669;50.206;9.998;2022-09-28T03:02:30;3.20;;;3.00;;
1350;SDS011;669;50.206;9.998;2022-09-28T03:05:05;3.43;;;3.13;;
1350;SDS011;669;50.206;9.998;2022-09-28T03:07:39;2.87;;;2.67;;
1350;SDS011;669;50.206;9.998;2022-09-28T03:10:13;4.93;;;3.97;;
1350;SDS011;669;50.206;9.998;2022-09-28T03:12:45;3.43;;;2.90;;
1350;SDS011;669;50.206;9.998;2022-09-28T03:15:20;2.93;;;2.70;;
1350;SDS011;669;50.206;9.998;2022-09-28T03:17:49;6.37;;;2.93;;
1350;SDS011;669;50.206;9.998;2022-09-28T03:20:18;2.50;;;2.30;;
1350;SDS011;669;50.206;9.998;2022-09-28T03:22:46;3.90;;;2.40;;
1350;SDS011;669;50.206;9.998;2022-09-28T03:25:33;3.60;;;2.30;;
1350;SDS011;669;50.206;9.998;2022-09-28T03:28:01;4.13;;;3.27;;
1350;SDS011;669;50.206;9.998;2022-09-28T03:30:31;3.47;;;3.27;;
1350;SDS011;669;50.206;9.998;2022-09-28T03:32:59;3.80;;;3.03;;
1350;SDS011;669;50.206;9.998;2022-09-28T03:35:28;3.57;;;3.27;;
1350;SDS011;669;50.206;9.998;2022-09-28T03:37:56;3.53;;;3.23;;
1350;SDS011;669;50.206;9.998;2022-09-28T03:40:24;3.90;;;3.60;;
1350;SDS011;669;50.206;9.998;2022-09-28T03:42:52;3.37;;;3.00;;
1350;SDS011;669;50.206;9.998;2022-09-28T03:45:20;3.67;;;2.37;;
1350;SDS011;669;50.206;9.998;2022-09-28T03:47:49;2.50;;;2.30;;
1350;SDS011;669;50.206;9.998;2022-09-28T03:50:17;7.23;;;2.10;;
1350;SDS011;669;50.206;9.998;2022-09-28T03:52:45;2.10;;;2.00;;
1350;SDS011;669;50.206;9.998;2022-09-28T03:55:13;2.40;;;2.03;;
1350;SDS011;669;50.206;9.998;2022-09-28T03:57:41;3.20;;;2.37;;
1350;SDS011;669;50.206;9.998;2022-09-28T04:00:10;4.87;;;2.47;;
1350;SDS011;669;50.206;9.998;2022-09-28T04:02:38;2.03;;;1.93;;
1350;SDS011;669;50.206;9.998;2022-09-28T04:05:07;2.27;;;1.87;;
1350;SDS011;669;50.206;9.998;2022-09-28T04:07:35;3.30;;;2.00;;
1350;SDS011;669;50.206;9.998;2022-09-28T04:10:04;2.00;;;1.90;;
1350;SDS011;669;50.206;9.998;2022-09-28T04:12:32;1.80;;;1.70;;
1350;SDS011;669;50.206;9.998;2022-09-28T04:15:00;2.27;;;1.90;;
1350;SDS011;669;50.206;9.998;2022-09-28T04:17:28;2.00;;;1.83;;
1350;SDS011;669;50.206;9.998;2022-09-28T04:20:03;2.20;;;1.90;;
1350;SDS011;669;50.206;9.998;2022-09-28T04:22:33;4.23;;;1.90;;
1350;SDS011;669;50.206;9.998;2022-09-28T04:25:03;1.93;;;1.83;;
1350;SDS011;669;50.206;9.998;2022-09-28T04:27:31;2.50;;;1.73;;
1350;SDS011;669;50.206;9.998;2022-09-28T04:30:17;2.57;;;1.73;;
1350;SDS011;669;50.206;9.998;2022-09-28T04:32:45;1.63;;;1.53;;
1350;SDS011;669;50.206;9.998;2022-09-28T04:35:13;1.20;;;1.20;;
1350;SDS011;669;50.206;9.998;2022-09-28T04:37:43;1.77;;;1.67;;
1350;SDS011;669;50.206;9.998;2022-09-28T04:40:11;2.20;;;1.57;;
1350;SDS011;669;50.206;9.998;2022-09-28T04:42:38;1.40;;;1.40;;
1350;SDS011;669;50.206;9.998;2022-09-28T04:45:07;0.80;;;0.80;;
1350;SDS011;669;50.206;9.998;2022-09-28T04:47:35;1.50;;;1.20;;
1350;SDS011;669;50.206;9.998;2022-09-28T04:50:03;0.80;;;0.80;;
1350;SDS011;669;50.206;9.998;2022-09-28T04:52:34;1.77;;;1.20;;
1350;SDS011;669;50.206;9.998;2022-09-28T04:55:04;1.30;;;1.30;;
1350;SDS011;669;50.206;9.998;2022-09-28T04:57:32;2.10;;;1.27;;
1350;SDS011;669;50.206;9.998;2022-09-28T05:00:01;1.80;;;1.70;;
1350;SDS011;669;50.206;9.998;2022-09-28T05:02:29;1.20;;;1.10;;
1350;SDS011;669;50.206;9.998;2022-09-28T05:04:58;1.40;;;1.30;;
1350;SDS011;669;50.206;9.998;2022-09-28T05:07:27;1.37;;;1.27;;
1350;SDS011;669;50.206;9.998;2022-09-28T05:09:56;2.73;;;1.60;;
1350;SDS011;669;50.206;9.998;2022-09-28T05:12:27;1.47;;;1.30;;
1350;SDS011;669;50.206;9.998;2022-09-28T05:14:55;1.57;;;1.10;;
1350;SDS011;669;50.206;9.998;2022-09-28T05:17:23;2.10;;;1.23;;
1350;SDS011;669;50.206;9.998;2022-09-28T05:19:50;1.90;;;1.50;;
1350;SDS011;669;50.206;9.998;2022-09-28T05:22:18;1.47;;;1.37;;
1350;SDS011;669;50.206;9.998;2022-09-28T05:24:46;1.23;;;1.23;;
1350;SDS011;669;50.206;9.998;2022-09-28T05:27:14;1.57;;;1.53;;
1350;SDS011;669;50.206;9.998;2022-09-28T05:29:43;7.50;;;1.50;;
1350;SDS011;669;50.206;9.998;2022-09-28T05:32:11;2.27;;;2.10;;
1350;SDS011;669;50.206;9.998;2022-09-28T05:34:39;2.90;;;2.40;;
1350;SDS011;669;50.206;9.998;2022-09-28T05:37:07;3.03;;;2.10;;
1350;SDS011;669;50.206;9.998;2022-09-28T05:39:35;2.00;;;1.90;;
1350;SDS011;669;50.206;9.998;2022-09-28T05:42:03;2.20;;;2.10;;
1350;SDS011;669;50.206;9.998;2022-09-28T05:44:31;6.30;;;1.97;;
1350;SDS011;669;50.206;9.998;2022-09-28T05:47:00;2.30;;;2.20;;
1350;SDS011;669;50.206;9.998;2022-09-28T05:49:28;6.77;;;2.17;;
1350;SDS011;669;50.206;9.998;2022-09-28T05:51:57;2.50;;;2.30;;
1350;SDS011;669;50.206;9.998;2022-09-28T05:54:25;1.73;;;1.63;;
1350;SDS011;669;50.206;9.998;2022-09-28T05:56:53;3.87;;;1.60;;
1350;SDS011;669;50.206;9.998;2022-09-28T05:59:21;1.10;;;1.10;;
1350;SDS011;669;50.206;9.998;2022-09-28T06:01:49;1.73;;;1.63;;
1350;SDS011;669;50.206;9.998;2022-09-28T06:04:18;2.63;;;1.33;;
1350;SDS011;669;50.206;9.998;2022-09-28T06:06:47;3.80;;;1.90;;
1350;SDS011;669;50.206;9.998;2022-09-28T06:09:15;2.40;;;1.30;;
1350;SDS011;669;50.206;9.998;2022-09-28T06:11:45;1.63;;;1.53;;
1350;SDS011;669;50.206;9.998;2022-09-28T06:14:14;1.50;;;1.40;;
1350;SDS011;669;50.206;9.998;2022-09-28T06:16:42;1.23;;;1.13;;
1350;SDS011;669;50.206;9.998;2022-09-28T06:19:11;1.07;;;1.07;;
1350;SDS011;669;50.206;9.998;2022-09-28T06:21:40;1.17;;;1.17;;
1350;SDS011;669;50.206;9.998;2022-09-28T06:24:08;1.83;;;1.30;;
1350;SDS011;669;50.206;9.998;2022-09-28T06:26:36;1.13;;;1.13;;
1350;SDS011;669;50.206;9.998;2022-09-28T06:29:04;1.50;;;1.40;;
1350;SDS011;669;50.206;9.998;2022-09-28T06:31:32;1.27;;;1.20;;
1350;SDS011;669;50.206;9.998;2022-09-28T06:34:00;1.30;;;1.30;;
1350;SDS011;669;50.206;9.998;2022-09-28T06:36:28;1.87;;;1.77;;
1350;SDS011;669;50.206;9.998;2022-09-28T06:38:57;3.00;;;1.50;;
1350;SDS011;669;50.206;9.998;2022-09-28T06:41:25;1.80;;;1.20;;
1350;SDS011;669;50.206;9.998;2022-09-28T06:43:53;1.20;;;1.10;;
1350;SDS011;669;50.206;9.998;2022-09-28T06:46:21;2.93;;;1.33;;
1350;SDS011;669;50.206;9.998;2022-09-28T06:48:49;1.70;;;1.03;;
1350;SDS011;669;50.206;9.998;2022-09-28T06:51:18;2.20;;;1.53;;
1350;SDS011;669;50.206;9.998;2022-09-28T06:53:45;2.70;;;1.60;;
1350;SDS011;669;50.206;9.998;2022-09-28T06:56:15;1.33;;;1.23;;
1350;SDS011;669;50.206;9.998;2022-09-28T06:58:43;2.00;;;1.00;;
1350;SDS011;669;50.206;9.998;2022-09-28T07:01:11;1.50;;;1.30;;
1350;SDS011;669;50.206;9.998;2022-09-28T07:03:39;1.60;;;1.50;;
1350;SDS011;669;50.206;9.998;2022-09-28T07:06:08;1.53;;;1.43;;
1350;SDS011;669;50.206;9.998;2022-09-28T07:08:37;2.00;;;1.20;;
1350;SDS011;669;50.206;9.998;2022-09-28T07:11:07;4.97;;;1.33;;
1350;SDS011;669;50.206;9.998;2022-09-28T07:13:36;1.73;;;1.10;;
1350;SDS011;669;50.206;9.998;2022-09-28T07:16:16;1.53;;;1.40;;
1350;SDS011;669;50.206;9.998;2022-09-28T07:18:51;1.60;;;1.50;;
1350;SDS011;669;50.206;9.998;2022-09-28T07:21:19;2.30;;;1.53;;
1350;SDS011;669;50.206;9.998;2022-09-28T07:23:55;1.93;;;1.83;;
1350;SDS011;669;50.206;9.998;2022-09-28T07:26:23;6.73;;;2.47;;
1350;SDS011;669;50.206;9.998;2022-09-28T07:28:53;2.00;;;1.90;;
1350;SDS011;669;50.206;9.998;2022-09-28T07:31:21;2.30;;;2.20;;
1350;SDS011;669;50.206;9.998;2022-09-28T07:33:50;2.50;;;2.30;;
1350;SDS011;669;50.206;9.998;2022-09-28T07:36:19;2.30;;;2.10;;
1350;SDS011;669;50.206;9.998;2022-09-28T07:38:47;1.97;;;1.87;;
1350;SDS011;669;50.206;9.998;2022-09-28T07:41:15;1.50;;;1.47;;
1350;SDS011;669;50.206;9.998;2022-09-28T07:43:47;2.20;;;2.10;;
1350;SDS011;669;50.206;9.998;2022-09-28T07:46:17;2.47;;;2.27;;
1350;SDS011;669;50.206;9.998;2022-09-28T07:48:46;2.33;;;2.13;;
1350;SDS011;669;50.206;9.998;2022-09-28T07:51:16;2.13;;;1.60;;
1350;SDS011;669;50.206;9.998;2022-09-28T07:53:46;4.03;;;2.67;;
1350;SDS011;669;50.206;9.998;2022-09-28T07:56:14;3.00;;;2.80;;
1350;SDS011;669;50.206;9.998;2022-09-28T07:58:45;3.13;;;2.77;;
1350;SDS011;669;50.206;9.998;2022-09-28T08:01:13;2.50;;;2.30;;
1350;SDS011;669;50.206;9.998;2022-09-28T08:03:44;2.80;;;2.20;;
1350;SDS011;669;50.206;9.998;2022-09-28T08:06:13;3.10;;;2.20;;
1350;SDS011;669;50.206;9.998;2022-09-28T08:08:42;2.43;;;2.23;;
1350;SDS011;669;50.206;9.998;2022-09-28T08:11:11;2.60;;;2.40;;
1350;SDS011;669;50.206;9.998;2022-09-28T08:13:42;3.03;;;2.83;;
1350;SDS011;669;50.206;9.998;2022-09-28T08:16:11;4.60;;;1.90;;
1350;SDS011;669;50.206;9.998;2022-09-28T08:18:39;6.17;;;1.63;;
1350;SDS011;669;50.206;9.998;2022-09-28T08:21:09;2.73;;;2.53;;
1350;SDS011;669;50.206;9.998;2022-09-28T08:23:54;2.17;;;1.90;;
1350;SDS011;669;50.206;9.998;2022-09-28T08:26:22;1.80;;;1.30;;
1350;SDS011;669;50.206;9.998;2022-09-28T08:28:50;2.10;;;1.90;;
1350;SDS011;669;50.206;9.998;2022-09-28T08:31:18;1.67;;;1.47;;
1350;SDS011;669;50.206;9.998;2022-09-28T08:33:46;2.57;;;1.90;;
1350;SDS011;669;50.206;9.998;2022-09-28T08:36:19;2.00;;;1.90;;
1350;SDS011;669;50.206;9.998;2022-09-28T08:38:47;2.20;;;1.90;;
1350;SDS011;669;50.206;9.998;2022-09-28T08:41:17;1.50;;;1.50;;
1350;SDS011;669;50.206;9.998;2022-09-28T08:43:56;3.10;;;2.00;;
1350;SDS011;669;50.206;9.998;2022-09-28T08:46:32;2.10;;;2.00;;
1350;SDS011;669;50.206;9.998;2022-09-28T08:49:05;2.37;;;2.17;;
1350;SDS011;669;50.206;9.998;2022-09-28T08:51:53;4.43;;;2.60;;
1350;SDS011;669;50.206;9.998;2022-09-28T08:54:36;5.30;;;2.40;;
1350;SDS011;669;50.206;9.998;2022-09-28T08:57:11;2.80;;;2.43;;
1350;SDS011;669;50.206;9.998;2022-09-28T08:59:44;4.53;;;3.33;;
1350;SDS011;669;50.206;9.998;2022-09-28T09:02:17;2.23;;;2.03;;
1350;SDS011;669;50.206;9.998;2022-09-28T09:04:50;2.60;;;2.40;;
1350;SDS011;669;50.206;9.998;2022-09-28T09:10:29;3.13;;;2.60;;
1350;SDS011;669;50.206;9.998;2022-09-28T09:13:27;3.30;;;2.47;;
1350;SDS011;669;50.206;9.998;2022-09-28T09:16:07;2.50;;;1.87;;
1350;SDS011;669;50.206;9.998;2022-09-28T09:18:41;2.13;;;2.03;;
1350;SDS011;669;50.206;9.998;2022-09-28T09:21:13;2.03;;;1.83;;
1350;SDS011;669;50.206;9.998;2022-09-28T09:23:50;1.77;;;1.67;;
1350;SDS011;669;50.206;9.998;2022-09-28T09:26:25;2.43;;;1.80;;
1350;SDS011;669;50.206;9.998;2022-09-28T09:29:06;2.07;;;1.97;;
1350;SDS011;669;50.206;9.998;2022-09-28T09:31:45;2.13;;;2.03;;
1350;SDS011;669;50.206;9.998;2022-09-28T09:34:29;2.40;;;2.30;;
1350;SDS011;669;50.206;9.998;2022-09-28T09:37:09;2.33;;;2.07;;
1350;SDS011;669;50.206;9.998;2022-09-28T09:39:53;2.23;;;2.13;;
1350;SDS011;669;50.206;9.998;2022-09-28T09:42:44;2.23;;;2.00;;
1350;SDS011;669;50.206;9.998;2022-09-28T09:45:27;2.30;;;2.17;;
1350;SDS011;669;50.206;9.998;2022-09-28T09:48:05;5.63;;;2.07;;
1350;SDS011;669;50.206;9.998;2022-09-28T09:50:38;3.60;;;2.63;;
1350;SDS011;669;50.206;9.998;2022-09-28T09:53:12;1.83;;;1.73;;
1350;SDS011;669;50.206;9.998;2022-09-28T09:55:48;2.43;;;2.27;;
1350;SDS011;669;50.206;9.998;2022-09-28T09:58:23;2.73;;;2.30;;
1350;SDS011;669;50.206;9.998;2022-09-28T10:00:58;3.67;;;2.90;;
1350;SDS011;669;50.206;9.998;2022-09-28T10:03:33;2.47;;;2.10;;
1350;SDS011;669;50.206;9.998;2022-09-28T10:06:04;4.47;;;2.73;;
1350;SDS011;669;50.206;9.998;2022-09-28T10:08:36;3.40;;;2.10;;
1350;SDS011;669;50.206;9.998;2022-09-28T10:11:10;4.07;;;2.63;;
1350;SDS011;669;50.206;9.998;2022-09-28T10:13:42;4.00;;;2.10;;
1350;SDS011;669;50.206;9.998;2022-09-28T10:16:14;1.93;;;1.83;;
1350;SDS011;669;50.206;9.998;2022-09-28T10:18:44;2.00;;;1.30;;
1350;SDS011;669;50.206;9.998;2022-09-28T10:21:12;1.83;;;1.73;;
1350;SDS011;669;50.206;9.998;2022-09-28T10:23:41;2.70;;;2.00;;
1350;SDS011;669;50.206;9.998;2022-09-28T10:26:13;5.20;;;2.20;;
1350;SDS011;669;50.206;9.998;2022-09-28T10:28:51;3.83;;;1.87;;
1350;SDS011;669;50.206;9.998;2022-09-28T10:31:34;1.57;;;1.47;;
1350;SDS011;669;50.206;9.998;2022-09-28T10:34:04;1.40;;;1.30;;
1350;SDS011;669;50.206;9.998;2022-09-28T10:36:41;1.33;;;1.23;;
1350;SDS011;669;50.206;9.998;2022-09-28T10:39:23;1.30;;;1.20;;
1350;SDS011;669;50.206;9.998;2022-09-28T10:41:56;1.47;;;1.37;;
1350;SDS011;669;50.206;9.998;2022-09-28T10:44:27;1.67;;;1.20;;
1350;SDS011;669;50.206;9.998;2022-09-28T10:46:58;2.00;;;1.20;;
1350;SDS011;669;50.206;9.998;2022-09-28T10:49:28;1.97;;;1.20;;
1350;SDS011;669;50.206;9.998;2022-09-28T10:55:24;1.57;;;1.40;;
1350;SDS011;669;50.206;9.998;2022-09-28T10:57:59;2.23;;;1.90;;
1350;SDS011;669;50.206;9.998;2022-09-28T11:00:31;1.83;;;1.63;;
1350;SDS011;669;50.206;9.998;2022-09-28T11:03:01;1.90;;;1.80;;
1350;SDS011;669;50.206;9.998;2022-09-28T11:05:29;5.60;;;2.17;;
1350;SDS011;669;50.206;9.998;2022-09-28T11:07:58;1.93;;;1.73;;
1350;SDS011;669;50.206;9.998;2022-09-28T11:10:31;2.80;;;1.90;;
1350;SDS011;669;50.206;9.998;2022-09-28T11:13:01;2.67;;;2.47;;
1350;SDS011;669;50.206;9.998;2022-09-28T11:15:29;3.50;;;2.50;;
1350;SDS011;669;50.206;9.998;2022-09-28T11:18:16;1.90;;;1.30;;
1350;SDS011;669;50.206;9.998;2022-09-28T11:20:47;1.70;;;1.60;;
1350;SDS011;669;50.206;9.998;2022-09-28T11:23:17;3.37;;;1.40;;
1350;SDS011;669;50.206;9.998;2022-09-28T11:25:54;2.10;;;1.80;;
1350;SDS011;669;50.206;9.998;2022-09-28T11:28:28;1.90;;;1.80;;
1350;SDS011;669;50.206;9.998;2022-09-28T11:30:58;2.63;;;2.07;;
1350;SDS011;669;50.206;9.998;2022-09-28T11:33:28;1.53;;;1.43;;
1350;SDS011;669;50.206;9.998;2022-09-28T11:36:04;4.60;;;2.40;;
1350;SDS011;669;50.206;9.998;2022-09-28T11:38:44;1.53;;;1.43;;
1350;SDS011;669;50.206;9.998;2022-09-28T11:41:26;1.90;;;1.70;;
1350;SDS011;669;50.206;9.998;2022-09-28T11:44:20;1.67;;;1.57;;
1350;SDS011;669;50.206;9.998;2022-09-28T11:47:07;1.90;;;1.73;;
1350;SDS011;669;50.206;9.998;2022-09-28T11:49:54;1.90;;;1.67;;
1350;SDS011;669;50.206;9.998;2022-09-28T11:52:38;1.20;;;1.20;;
1350;SDS011;669;50.206;9.998;2022-09-28T11:55:13;1.47;;;1.37;;
1350;SDS011;669;50.206;9.998;2022-09-28T11:57:49;1.50;;;1.40;;
1350;SDS011;669;50.206;9.998;2022-09-28T12:00:24;2.50;;;1.90;;
1350;SDS011;669;50.206;9.998;2022-09-28T12:02:54;1.63;;;1.53;;
1350;SDS011;669;50.206;9.998;2022-09-28T12:05:27;4.03;;;2.47;;
1350;SDS011;669;50.206;9.998;2022-09-28T12:08:00;3.00;;;2.80;;
1350;SDS011;669;50.206;9.998;2022-09-28T12:10:34;3.10;;;2.90;;
1350;SDS011;669;50.206;9.998;2022-09-28T12:13:11;4.03;;;2.53;;
1350;SDS011;669;50.206;9.998;2022-09-28T12:15:47;3.33;;;2.97;;
1350;SDS011;669;50.206;9.998;2022-09-28T12:18:43;2.60;;;2.40;;
1350;SDS011;669;50.206;9.998;2022-09-28T12:21:21;1.80;;;1.70;;
1350;SDS011;669;50.206;9.998;2022-09-28T12:23:59;2.60;;;2.20;;
1350;SDS011;669;50.206;9.998;2022-09-28T12:26:33;2.20;;;2.10;;
1350;SDS011;669;50.206;9.998;2022-09-28T12:29:09;3.73;;;2.80;;
1350;SDS011;669;50.206;9.998;2022-09-28T12:31:46;3.43;;;3.23;;
1350;SDS011;669;50.206;9.998;2022-09-28T12:34:23;4.80;;;4.40;;
1350;SDS011;669;50.206;9.998;2022-09-28T12:36:55;6.20;;;4.53;;
1350;SDS011;669;50.206;9.998;2022-09-28T12:39:35;2.30;;;2.20;;
1350;SDS011;669;50.206;9.998;2022-09-28T12:42:36;2.20;;;2.10;;
1350;SDS011;669;50.206;9.998;2022-09-28T12:45:27;2.67;;;2.13;;
1350;SDS011;669;50.206;9.998;2022-09-28T12:48:27;2.80;;;2.60;;
1350;SDS011;669;50.206;9.998;2022-09-28T12:51:38;2.37;;;1.87;;
1350;SDS011;669;50.206;9.998;2022-09-28T12:54:18;3.33;;;1.40;;
1350;SDS011;669;50.206;9.998;2022-09-28T12:56:56;1.77;;;1.67;;
1350;SDS011;669;50.206;9.998;2022-09-28T12:59:36;1.63;;;1.23;;
1350;SDS011;669;50.206;9.998;2022-09-28T13:02:27;1.17;;;1.17;;
1350;SDS011;669;50.206;9.998;2022-09-28T13:05:17;1.00;;;1.00;;
1350;SDS011;669;50.206;9.998;2022-09-28T13:08:03;0.80;;;0.80;;
1350;SDS011;669;50.206;9.998;2022-09-28T13:10:35;1.10;;;1.00;;
1350;SDS011;669;50.206;9.998;2022-09-28T13:13:14;6.53;;;1.17;;
1350;SDS011;669;50.206;9.998;2022-09-28T13:15:55;1.37;;;1.27;;
1350;SDS011;669;50.206;9.998;2022-09-28T13:18:29;2.00;;;1.43;;
1350;SDS011;669;50.206;9.998;2022-09-28T13:21:13;1.70;;;1.60;;
1350;SDS011;669;50.206;9.998;2022-09-28T13:23:51;3.43;;;1.90;;
1350;SDS011;669;50.206;9.998;2022-09-28T13:26:43;1.90;;;1.80;;
1350;SDS011;669;50.206;9.998;2022-09-28T13:29:14;1.70;;;1.60;;
1350;SDS011;669;50.206;9.998;2022-09-28T13:31:45;5.50;;;2.93;;
1350;SDS011;669;50.206;9.998;2022-09-28T13:34:16;2.17;;;1.20;;
1350;SDS011;669;50.206;9.998;2022-09-28T13:39:37;1.10;;;1.00;;
1350;SDS011;669;50.206;9.998;2022-09-28T13:42:22;4.53;;;1.00;;
1350;SDS011;669;50.206;9.998;2022-09-28T13:45:06;1.27;;;1.00;;
1350;SDS011;669;50.206;9.998;2022-09-28T13:48:09;1.40;;;1.30;;
1350;SDS011;669;50.206;9.998;2022-09-28T13:50:45;0.90;;;0.90;;
1350;SDS011;669;50.206;9.998;2022-09-28T13:53:38;1.73;;;1.20;;
1350;SDS011;669;50.206;9.998;2022-09-28T13:56:20;1.13;;;1.00;;
1350;SDS011;669;50.206;9.998;2022-09-28T13:58:55;3.80;;;1.33;;
1350;SDS011;669;50.206;9.998;2022-09-28T14:01:28;1.87;;;1.07;;
1350;SDS011;669;50.206;9.998;2022-09-28T14:04:09;0.80;;;0.80;;
1350;SDS011;669;50.206;9.998;2022-09-28T14:06:40;0.80;;;0.77;;
1350;SDS011;669;50.206;9.998;2022-09-28T14:09:23;0.90;;;0.90;;
1350;SDS011;669;50.206;9.998;2022-09-28T14:11:54;0.77;;;0.77;;
1350;SDS011;669;50.206;9.998;2022-09-28T14:14:27;1.17;;;1.17;;
1350;SDS011;669;50.206;9.998;2022-09-28T14:16:58;6.20;;;1.10;;
1350;SDS011;669;50.206;9.998;2022-09-28T14:19:41;0.60;;;0.60;;
1350;SDS011;669;50.206;9.998;2022-09-28T14:22:12;0.87;;;0.80;;
1350;SDS011;669;50.206;9.998;2022-09-28T14:27:47;4.40;;;2.97;;
1350;SDS011;669;50.206;9.998;2022-09-28T14:30:33;1.63;;;1.30;;
1350;SDS011;669;50.206;9.998;2022-09-28T14:33:21;2.23;;;1.90;;
1350;SDS011;669;50.206;9.998;2022-09-28T14:35:52;0.90;;;0.70;;
1350;SDS011;669;50.206;9.998;2022-09-28T14:38:23;0.80;;;0.80;;
1350;SDS011;669;50.206;9.998;2022-09-28T14:41:24;3.30;;;0.53;;
1350;SDS011;669;50.206;9.998;2022-09-28T14:44:05;1.77;;;1.00;;
1350;SDS011;669;50.206;9.998;2022-09-28T14:46:35;2.23;;;0.97;;
1350;SDS011;669;50.206;9.998;2022-09-28T14:52:08;0.77;;;0.77;;
1350;SDS011;669;50.206;9.998;2022-09-28T14:54:47;1.27;;;0.80;;
1350;SDS011;669;50.206;9.998;2022-09-28T14:57:21;0.60;;;0.60;;
1350;SDS011;669;50.206;9.998;2022-09-28T14:59:51;1.00;;;0.90;;
1350;SDS011;669;50.206;9.998;2022-09-28T15:02:23;0.97;;;0.80;;
1350;SDS011;669;50.206;9.998;2022-09-28T15:04:54;1.47;;;1.10;;
1350;SDS011;669;50.206;9.998;2022-09-28T15:07:26;0.50;;;0.50;;
1350;SDS011;669;50.206;9.998;2022-09-28T15:09:59;0.67;;;0.67;;
1350;SDS011;669;50.206;9.998;2022-09-28T15:12:29;0.73;;;0.70;;
1350;SDS011;669;50.206;9.998;2022-09-28T15:14:58;0.80;;;0.73;;
1350;SDS011;669;50.206;9.998;2022-09-28T15:17:29;0.60;;;0.60;;
1350;SDS011;669;50.206;9.998;2022-09-28T15:20:15;0.60;;;0.60;;
1350;SDS011;669;50.206;9.998;2022-09-28T15:22:49;2.27;;;0.90;;
1350;SDS011;669;50.206;9.998;2022-09-28T15:25:22;0.80;;;0.80;;
1350;SDS011;669;50.206;9.998;2022-09-28T15:27:54;6.13;;;0.50;;
1350;SDS011;669;50.206;9.998;2022-09-28T15:30:24;0.80;;;0.80;;
1350;SDS011;669;50.206;9.998;2022-09-28T15:32:53;0.90;;;0.70;;
1350;SDS011;669;50.206;9.998;2022-09-28T15:35:44;0.97;;;0.97;;
1350;SDS011;669;50.206;9.998;2022-09-28T15:38:13;0.77;;;0.77;;
1350;SDS011;669;50.206;9.998;2022-09-28T15:40:43;1.40;;;1.00;;
1350;SDS011;669;50.206;9.998;2022-09-28T15:43:21;0.73;;;0.73;;
1350;SDS011;669;50.206;9.998;2022-09-28T15:45:55;0.67;;;0.67;;
1350;SDS011;669;50.206;9.998;2022-09-28T15:48:29;0.97;;;0.87;;
1350;SDS011;669;50.206;9.998;2022-09-28T15:51:04;1.03;;;0.87;;
1350;SDS011;669;50.206;9.998;2022-09-28T15:53:39;0.80;;;0.80;;
1350;SDS011;669;50.206;9.998;2022-09-28T15:56:09;3.73;;;1.07;;
1350;SDS011;669;50.206;9.998;2022-09-28T15:58:39;1.00;;;1.00;;
1350;SDS011;669;50.206;9.998;2022-09-28T16:01:17;3.10;;;2.50;;
1350;SDS011;669;50.206;9.998;2022-09-28T16:03:51;4.50;;;3.60;;
1350;SDS011;669;50.206;9.998;2022-09-28T16:06:20;3.87;;;3.40;;
1350;SDS011;669;50.206;9.998;2022-09-28T16:08:48;1.60;;;1.50;;
1350;SDS011;669;50.206;9.998;2022-09-28T16:11:17;1.30;;;1.20;;
1350;SDS011;669;50.206;9.998;2022-09-28T16:13:56;1.73;;;1.40;;
1350;SDS011;669;50.206;9.998;2022-09-28T16:16:29;2.07;;;1.97;;
1350;SDS011;669;50.206;9.998;2022-09-28T16:19:01;2.40;;;2.20;;
1350;SDS011;669;50.206;9.998;2022-09-28T16:21:41;2.53;;;2.37;;
1350;SDS011;669;50.206;9.998;2022-09-28T16:24:17;4.60;;;3.77;;